Rockhampton Airport
YBRK : now visible

Airfield :











YOU CAN JOIN US ON...

 
LOGIN :

Register | Disclaimer

   EN    FR    IT 

 









Legend :    VFR   Marginal VFR   IFR   Intensive IFR   Very Intensive IFR
Visi :
Ceiling :
>= 8 km
>= 3000ft
5 to 8 km
1000 to 3000 ft
1500m to 5 km
500 to 1000 ft
800 to 1500m
200 to 500 ft
< 800m
< 200 ft
Symbols :   Thunderstorms  Fog  Heavy snow  Heavy precipitations  Wind > 20 kt






- Airport Elevation : 34 ft
- IATA code : ROK


YBRK - Rockhampton

CURRENT METAR :
  • 270830Z AUTO 08008KT 9999 // NCD 26/16 Q1014 RF00.0/000.0

EXPIRED METARs :
  • 270800Z AUTO 08010KT 9999 // NCD 27/15 Q1013
  • 270730Z AUTO 08012KT 9999 // NCD 27/14 Q1013 RF00.0/000.0
  • 270700Z AUTO 08012KT 9999 // NCD 28/15 Q1013 RF00.0/000.0
  • 270630Z AUTO 07013KT 9999 // NCD 29/15 Q1013 RF00.0/000.0
  • 270600Z AUTO 08012KT 9999 // SCT088 29/16 Q1013 RF00.0/000.0

TAF TAF YBRK
Valid from the 27 at 06:00 until the 28 at 06:00 UTC


270522Z 2706/2806 07012KT CAVOK
FM271000 13008KT 9999 SCT025
FM271400 13006KT 9999 BKN025
FM272200 10012KT 9999 SCT030
FM280300 07014KT 9999 SCT045
YBBB FIR / Oceania



MET'MAP, your aeronautical weather chart ! - Copyright ORBIFLY December 2007 - Disclaimer

ORBIFLY MET'MAP TEAM :

Programming & Development : Alexandra Zaïnal
Concept & original design : Baudouin d'Aumeries
Assistance for programming : Marc-Olivier Méhu
Technical & hardware support : Manuel Goepfert

Contact : metmap@orbifly.com




SOURCES & CREDITS :

   NOAA       Earth
Advisory